Fmt Efes — 9HA2302 — position and weather

sailwx.info

Track history (hours):
 
Tides and Currents Weather Stations Pressure Air Temp Water Temp Dewpoint Dewpoint Depression Visibility Wind Speed Wind Dir Waves Ship Positions

Fmt Efes

Last reported at 2018-Jun-23 10:35 UTC. Time now 2018-Jun-24 12:53 UTC.
Position N 36°42' W 000°47'.

Length 143 m; draft 8.8 m.

Type: Ship (hazmat cat B). MMSI: 248288000.

Date/timePositionNaut miles runAvg speedWind from/ knotsBaromVisibWave heightAir tempDewpointWater temp
2018-Jun-23 10:35N 36°42' W 000°47'411.6
2018-Jun-23 10:15N 36°44' W 000°43'3311.7
2018-Jun-23 07:23N 36°58' W 000°05'511.8
2018-Jun-23 07:00N 36°60' E 000°00'611.8
2018-Jun-23 06:30N 37°02' E 000°07'611.8
2018-Jun-23 06:00N 37°05' E 000°14'611.8
2018-Jun-23 05:30N 37°07' E 000°21'711.5
2018-Jun-23 04:55N 37°10' E 000°28'611.4
2018-Jun-23 04:25N 37°13' E 000°35'611.5
2018-Jun-23 03:54N 37°15' E 000°41'511.3
2018-Jun-23 03:30N 37°17' E 000°47'611.2
2018-Jun-23 03:00N 37°19' E 000°53'611.2
2018-Jun-23 02:30N 37°22' E 000°59'611.2
2018-Jun-23 02:00N 37°24' E 001°06'611.3
2018-Jun-23 01:30N 37°27' E 001°12'611.5
2018-Jun-23 01:00N 37°29' E 001°18'611.5
2018-Jun-23 00:30N 37°32' E 001°25'2411.4
2018-Jun-22 22:26N 37°41' E 001°52'511.5
2018-Jun-22 22:00N 37°43' E 001°58'611.5
2018-Jun-22 21:30N 37°46' E 002°04'611.5
2018-Jun-22 21:00N 37°48' E 002°11'611.5
2018-Jun-22 20:30N 37°50' E 002°18'611.3
2018-Jun-22 20:00N 37°53' E 002°24'510.9
2018-Jun-22 19:30N 37°55' E 002°30'610.5
2018-Jun-22 18:54N 37°58' E 002°38'610.4
2018-Jun-22 18:19N 38°00' E 002°45'410.4
2018-Jun-22 17:56N 38°02' E 002°49'410.3
2018-Jun-22 17:30N 38°03' E 002°55'710.0
2018-Jun-22 16:47N 38°07' E 003°03'4 9.9
2018-Jun-22 16:22N 38°08' E 003°07'910.2
2018-Jun-22 15:29N 38°12' E 003°18'910.5
2018-Jun-22 14:40N 38°14' E 003°29'211.0
2018-Jun-22 14:30N 38°14' E 003°31'9011.0
2018-Jun-22 06:16N 38°12' E 005°26'810.6
2018-Jun-22 05:33N 38°12' E 005°35'110.6
2018-Jun-22 05:28N 38°12' E 005°37'510.8
2018-Jun-22 04:58N 38°11' E 005°43'39310.5
2018-Jun-20 15:31N 36°44' E 013°46'010.4
2018-Jun-20 15:30N 36°44' E 013°46'510.5
2018-Jun-20 15:00N 36°41' E 013°51'510.5
2018-Jun-20 14:30N 36°38' E 013°57'510.8
2018-Jun-20 14:00N 36°35' E 014°02'510.8
2018-Jun-20 13:30N 36°32' E 014°08'510.7
2018-Jun-20 13:00N 36°30' E 014°14'510.6
2018-Jun-20 12:30N 36°28' E 014°20'612.0
2018-Jun-20 12:00N 36°26' E 014°27'713.5
2018-Jun-20 11:30N 36°25' E 014°35'49410.6
2018-Jun-18 12:45N 37°12' E 024°50'311.3
2018-Jun-18 12:30N 37°13' E 024°53'611.4
2018-Jun-18 12:00N 37°15' E 024°60'611.6
2018-Jun-18 11:28N 37°17' E 025°07'511.5
2018-Jun-18 11:00N 37°18' E 025°14'611.4
2018-Jun-18 10:30N 37°20' E 025°21'611.6
2018-Jun-18 10:00N 37°21' E 025°28'611.6
2018-Jun-18 09:29N 37°23' E 025°35'385 8.9
2018-Jun-16 14:15N 42°53' E 029°53'311.0
2018-Jun-16 13:59N 42°56' E 029°54'711.0
2018-Jun-16 13:21N 43°03' E 029°58'1511.2
2018-Jun-16 11:59N 43°17' E 030°06'511.1
2018-Jun-16 11:30N 43°22' E 030°08'611.3
2018-Jun-16 11:00N 43°27' E 030°11'611.4
2018-Jun-16 10:29N 43°33' E 030°14'611.4
2018-Jun-16 09:58N 43°38' E 030°16'511.5
2018-Jun-16 09:30N 43°43' E 030°18'611.6
2018-Jun-16 09:00N 43°49' E 030°21'611.6
2018-Jun-16 08:30N 43°54' E 030°24'611.5
2018-Jun-16 08:00N 43°60' E 030°27'611.3
2018-Jun-16 07:30N 44°05' E 030°29'611.3
2018-Jun-16 07:00N 44°10' E 030°33'611.4
2018-Jun-16 06:30N 44°16' E 030°35'5812.1
2018-Jun-16 01:44N 45°10' E 031°03'3111.7
2018-Jun-15 23:08N 45°40' E 031°09'512.2
2018-Jun-15 22:44N 45°45' E 031°08'2212.2
2018-Jun-15 20:58N 46°06' E 031°05'812.1
2018-Jun-15 20:18N 46°12' E 030°57'412.0
2018-Jun-15 19:59N 46°15' E 030°53'1010.0
2018-Jun-15 19:02N 46°19' E 030°41'0 5.4
2018-Jun-15 19:00N 46°19' E 030°41'1 0.4
2018-Jun-15 16:02N 46°19' E 030°39'0 0.0
2018-Jun-15 15:53N 46°19' E 030°39'0 0.0
2018-Jun-15 13:54N 46°19' E 030°39'0 0.0
2018-Jun-15 12:54N 46°19' E 030°39'0 0.0
2018-Jun-15 10:56N 46°19' E 030°39'0 0.0
2018-Jun-15 10:01N 46°19' E 030°39'0 0.0
2018-Jun-15 07:58N 46°19' E 030°39'0 0.0
2018-Jun-15 05:56N 46°19' E 030°39'0 0.0
2018-Jun-15 05:00N 46°19' E 030°39'0 0.0
2018-Jun-15 04:04N 46°19' E 030°39'0 0.0
2018-Jun-15 02:01N 46°19' E 030°39'0 0.0
2018-Jun-15 00:55N 46°19' E 030°39'0 0.0
2018-Jun-15 00:19N 46°19' E 030°39'0 0.0
2018-Jun-14 23:56N 46°19' E 030°39'0 0.0
2018-Jun-14 23:20N 46°19' E 030°39'0 0.0
2018-Jun-14 21:00N 46°19' E 030°39'0 0.0
2018-Jun-14 19:58N 46°19' E 030°39'0 0.0
2018-Jun-14 18:00N 46°19' E 030°39'0 0.0
2018-Jun-14 16:58N 46°19' E 030°39'0 0.0
2018-Jun-14 15:02N 46°19' E 030°39'0 0.0
2018-Jun-14 15:00N 46°19' E 030°39'0 0.0
2018-Jun-14 14:02N 46°19' E 030°39'0 0.0
2018-Jun-14 14:00N 46°19' E 030°39'0 0.0
2018-Jun-14 13:02N 46°19' E 030°39'0 0.0
2018-Jun-14 13:00N 46°19' E 030°39'0 0.0
2018-Jun-14 12:02N 46°19' E 030°39'0 0.0
2018-Jun-14 12:00N 46°19' E 030°39'0 0.0
2018-Jun-14 11:01N 46°19' E 030°39'0 0.0
2018-Jun-14 11:00N 46°19' E 030°39'0 0.0
2018-Jun-14 10:02N 46°19' E 030°39'0 0.0
2018-Jun-14 09:59N 46°19' E 030°39'0 0.0
2018-Jun-14 09:22N 46°19' E 030°39'0 0.0
2018-Jun-14 08:57N 46°19' E 030°39'0 0.0
2018-Jun-14 08:30N 46°19' E 030°39'0 0.0
2018-Jun-14 07:58N 46°19' E 030°39'0 0.0
2018-Jun-14 07:01N 46°19' E 030°39'0 0.0
2018-Jun-14 06:59N 46°19' E 030°39'0 0.0
2018-Jun-14 06:29N 46°19' E 030°39'0 0.0
2018-Jun-14 05:57N 46°19' E 030°39'0 0.0
2018-Jun-14 04:58N 46°19' E 030°39'0 0.0
2018-Jun-14 04:30N 46°19' E 030°39'0 0.0
2018-Jun-14 04:01N 46°19' E 030°39'0 0.0
2018-Jun-14 03:30N 46°19' E 030°39'0 0.0
2018-Jun-14 03:00N 46°19' E 030°39'0 0.0
2018-Jun-14 02:30N 46°19' E 030°39'0 0.0
2018-Jun-14 02:00N 46°19' E 030°39'0 0.0
2018-Jun-14 01:29N 46°19' E 030°39'0 0.0
2018-Jun-14 01:00N 46°19' E 030°39'0 0.0
2018-Jun-14 00:18N 46°19' E 030°39'0 0.0
2018-Jun-13 23:59N 46°19' E 030°39'0 0.0
2018-Jun-13 23:02N 46°19' E 030°39'0 0.1
2018-Jun-13 23:00N 46°19' E 030°39'0 0.0
2018-Jun-13 22:02N 46°19' E 030°39'0 0.0
2018-Jun-13 22:00N 46°19' E 030°39'0 0.0
2018-Jun-13 21:14N 46°19' E 030°39'0 0.0
2018-Jun-13 21:01N 46°19' E 030°39'0 0.0
2018-Jun-13 20:25N 46°19' E 030°39'0 0.0
2018-Jun-13 20:00N 46°19' E 030°39'0 0.0
2018-Jun-13 19:30N 46°19' E 030°39'0 0.0
2018-Jun-13 19:00N 46°19' E 030°39'1 2.6
2018-Jun-13 18:30N 46°20' E 030°39'0 0.3
2018-Jun-13 18:01N 46°21' E 030°38'0 0.0
2018-Jun-13 17:02N 46°21' E 030°38'0 0.0
2018-Jun-13 17:00N 46°21' E 030°38'0 0.0
2018-Jun-13 16:02N 46°21' E 030°38'0 0.0
2018-Jun-13 16:00N 46°21' E 030°38'0 0.0
2018-Jun-13 15:02N 46°21' E 030°38'0 0.0
2018-Jun-13 15:00N 46°21' E 030°38'0 0.0
2018-Jun-13 14:04N 46°21' E 030°38'0 0.0
2018-Jun-13 14:00N 46°21' E 030°38'0 0.0
2018-Jun-13 13:03N 46°21' E 030°38'0 0.0
2018-Jun-13 12:56N 46°21' E 030°38'0 0.0
2018-Jun-13 12:03N 46°21' E 030°38'0 0.1
2018-Jun-13 12:00N 46°21' E 030°38'0 0.0
2018-Jun-13 11:04N 46°21' E 030°38'0 0.1
2018-Jun-13 11:00N 46°21' E 030°38'  
Track history (hours):
 
Tides and Currents Weather Stations Pressure Air Temp Water Temp Dewpoint Dewpoint Depression Visibility Wind Speed Wind Dir Waves Ship Positions

Fmt Efes

Last reported at 2018-Jun-23 10:35 UTC. Time now 2018-Jun-24 12:53 UTC.
Position N 36°42' W 000°47'.

Length 143 m; draft 8.8 m.

Type: Ship (hazmat cat B). MMSI: 248288000.

Date/timePositionNaut miles runAvg speedWind from/ knotsBaromVisibWave heightAir tempDewpointWater temp
2018-Jun-23 10:35N 36°42' W 000°47'411.6
2018-Jun-23 10:15N 36°44' W 000°43'3311.7
2018-Jun-23 07:23N 36°58' W 000°05'511.8
2018-Jun-23 07:00N 36°60' E 000°00'611.8
2018-Jun-23 06:30N 37°02' E 000°07'611.8
2018-Jun-23 06:00N 37°05' E 000°14'611.8
2018-Jun-23 05:30N 37°07' E 000°21'711.5
2018-Jun-23 04:55N 37°10' E 000°28'611.4
2018-Jun-23 04:25N 37°13' E 000°35'611.5
2018-Jun-23 03:54N 37°15' E 000°41'511.3
2018-Jun-23 03:30N 37°17' E 000°47'611.2
2018-Jun-23 03:00N 37°19' E 000°53'611.2
2018-Jun-23 02:30N 37°22' E 000°59'611.2
2018-Jun-23 02:00N 37°24' E 001°06'611.3
2018-Jun-23 01:30N 37°27' E 001°12'611.5
2018-Jun-23 01:00N 37°29' E 001°18'611.5
2018-Jun-23 00:30N 37°32' E 001°25'2411.4
2018-Jun-22 22:26N 37°41' E 001°52'511.5
2018-Jun-22 22:00N 37°43' E 001°58'611.5
2018-Jun-22 21:30N 37°46' E 002°04'611.5
2018-Jun-22 21:00N 37°48' E 002°11'611.5
2018-Jun-22 20:30N 37°50' E 002°18'611.3
2018-Jun-22 20:00N 37°53' E 002°24'510.9
2018-Jun-22 19:30N 37°55' E 002°30'610.5
2018-Jun-22 18:54N 37°58' E 002°38'610.4
2018-Jun-22 18:19N 38°00' E 002°45'410.4
2018-Jun-22 17:56N 38°02' E 002°49'410.3
2018-Jun-22 17:30N 38°03' E 002°55'710.0
2018-Jun-22 16:47N 38°07' E 003°03'4 9.9
2018-Jun-22 16:22N 38°08' E 003°07'910.2
2018-Jun-22 15:29N 38°12' E 003°18'910.5
2018-Jun-22 14:40N 38°14' E 003°29'211.0
2018-Jun-22 14:30N 38°14' E 003°31'9011.0
2018-Jun-22 06:16N 38°12' E 005°26'810.6
2018-Jun-22 05:33N 38°12' E 005°35'110.6
2018-Jun-22 05:28N 38°12' E 005°37'510.8
2018-Jun-22 04:58N 38°11' E 005°43'39310.5
2018-Jun-20 15:31N 36°44' E 013°46'010.4
2018-Jun-20 15:30N 36°44' E 013°46'510.5
2018-Jun-20 15:00N 36°41' E 013°51'510.5
2018-Jun-20 14:30N 36°38' E 013°57'510.8
2018-Jun-20 14:00N 36°35' E 014°02'510.8
2018-Jun-20 13:30N 36°32' E 014°08'510.7
2018-Jun-20 13:00N 36°30' E 014°14'510.6
2018-Jun-20 12:30N 36°28' E 014°20'612.0
2018-Jun-20 12:00N 36°26' E 014°27'713.5
2018-Jun-20 11:30N 36°25' E 014°35'49410.6
2018-Jun-18 12:45N 37°12' E 024°50'311.3
2018-Jun-18 12:30N 37°13' E 024°53'611.4
2018-Jun-18 12:00N 37°15' E 024°60'611.6
2018-Jun-18 11:28N 37°17' E 025°07'511.5
2018-Jun-18 11:00N 37°18' E 025°14'611.4
2018-Jun-18 10:30N 37°20' E 025°21'611.6
2018-Jun-18 10:00N 37°21' E 025°28'611.6
2018-Jun-18 09:29N 37°23' E 025°35'385 8.9
2018-Jun-16 14:15N 42°53' E 029°53'311.0
2018-Jun-16 13:59N 42°56' E 029°54'711.0
2018-Jun-16 13:21N 43°03' E 029°58'1511.2
2018-Jun-16 11:59N 43°17' E 030°06'511.1
2018-Jun-16 11:30N 43°22' E 030°08'611.3
2018-Jun-16 11:00N 43°27' E 030°11'611.4
2018-Jun-16 10:29N 43°33' E 030°14'611.4
2018-Jun-16 09:58N 43°38' E 030°16'511.5
2018-Jun-16 09:30N 43°43' E 030°18'611.6
2018-Jun-16 09:00N 43°49' E 030°21'611.6
2018-Jun-16 08:30N 43°54' E 030°24'611.5
2018-Jun-16 08:00N 43°60' E 030°27'611.3
2018-Jun-16 07:30N 44°05' E 030°29'611.3
2018-Jun-16 07:00N 44°10' E 030°33'611.4
2018-Jun-16 06:30N 44°16' E 030°35'5812.1
2018-Jun-16 01:44N 45°10' E 031°03'3111.7
2018-Jun-15 23:08N 45°40' E 031°09'512.2
2018-Jun-15 22:44N 45°45' E 031°08'2212.2
2018-Jun-15 20:58N 46°06' E 031°05'812.1
2018-Jun-15 20:18N 46°12' E 030°57'412.0
2018-Jun-15 19:59N 46°15' E 030°53'1010.0
2018-Jun-15 19:02N 46°19' E 030°41'0 5.4
2018-Jun-15 19:00N 46°19' E 030°41'1 0.4
2018-Jun-15 16:02N 46°19' E 030°39'0 0.0
2018-Jun-15 15:53N 46°19' E 030°39'0 0.0
2018-Jun-15 13:54N 46°19' E 030°39'0 0.0
2018-Jun-15 12:54N 46°19' E 030°39'0 0.0
2018-Jun-15 10:56N 46°19' E 030°39'0 0.0
2018-Jun-15 10:01N 46°19' E 030°39'0 0.0
2018-Jun-15 07:58N 46°19' E 030°39'0 0.0
2018-Jun-15 05:56N 46°19' E 030°39'0 0.0
2018-Jun-15 05:00N 46°19' E 030°39'0 0.0
2018-Jun-15 04:04N 46°19' E 030°39'0 0.0
2018-Jun-15 02:01N 46°19' E 030°39'0 0.0
2018-Jun-15 00:55N 46°19' E 030°39'0 0.0
2018-Jun-15 00:19N 46°19' E 030°39'0 0.0
2018-Jun-14 23:56N 46°19' E 030°39'0 0.0
2018-Jun-14 23:20N 46°19' E 030°39'0 0.0
2018-Jun-14 21:00N 46°19' E 030°39'0 0.0
2018-Jun-14 19:58N 46°19' E 030°39'0 0.0
2018-Jun-14 18:00N 46°19' E 030°39'0 0.0
2018-Jun-14 16:58N 46°19' E 030°39'0 0.0
2018-Jun-14 15:02N 46°19' E 030°39'0 0.0
2018-Jun-14 15:00N 46°19' E 030°39'0 0.0
2018-Jun-14 14:02N 46°19' E 030°39'0 0.0
2018-Jun-14 14:00N 46°19' E 030°39'0 0.0
2018-Jun-14 13:02N 46°19' E 030°39'0 0.0
2018-Jun-14 13:00N 46°19' E 030°39'0 0.0
2018-Jun-14 12:02N 46°19' E 030°39'0 0.0
2018-Jun-14 12:00N 46°19' E 030°39'0 0.0
2018-Jun-14 11:01N 46°19' E 030°39'0 0.0
2018-Jun-14 11:00N 46°19' E 030°39'0 0.0
2018-Jun-14 10:02N 46°19' E 030°39'0 0.0
2018-Jun-14 09:59N 46°19' E 030°39'0 0.0
2018-Jun-14 09:22N 46°19' E 030°39'0 0.0
2018-Jun-14 08:57N 46°19' E 030°39'0 0.0
2018-Jun-14 08:30N 46°19' E 030°39'0 0.0
2018-Jun-14 07:58N 46°19' E 030°39'0 0.0
2018-Jun-14 07:01N 46°19' E 030°39'0 0.0
2018-Jun-14 06:59N 46°19' E 030°39'0 0.0
2018-Jun-14 06:29N 46°19' E 030°39'0 0.0
2018-Jun-14 05:57N 46°19' E 030°39'0 0.0
2018-Jun-14 04:58N 46°19' E 030°39'0 0.0
2018-Jun-14 04:30N 46°19' E 030°39'0 0.0
2018-Jun-14 04:01N 46°19' E 030°39'0 0.0
2018-Jun-14 03:30N 46°19' E 030°39'0 0.0
2018-Jun-14 03:00N 46°19' E 030°39'0 0.0
2018-Jun-14 02:30N 46°19' E 030°39'0 0.0
2018-Jun-14 02:00N 46°19' E 030°39'0 0.0
2018-Jun-14 01:29N 46°19' E 030°39'0 0.0
2018-Jun-14 01:00N 46°19' E 030°39'0 0.0
2018-Jun-14 00:18N 46°19' E 030°39'0 0.0
2018-Jun-13 23:59N 46°19' E 030°39'0 0.0
2018-Jun-13 23:02N 46°19' E 030°39'0 0.1
2018-Jun-13 23:00N 46°19' E 030°39'0 0.0
2018-Jun-13 22:02N 46°19' E 030°39'0 0.0
2018-Jun-13 22:00N 46°19' E 030°39'0 0.0
2018-Jun-13 21:14N 46°19' E 030°39'0 0.0
2018-Jun-13 21:01N 46°19' E 030°39'0 0.0
2018-Jun-13 20:25N 46°19' E 030°39'0 0.0
2018-Jun-13 20:00N 46°19' E 030°39'0 0.0
2018-Jun-13 19:30N 46°19' E 030°39'0 0.0
2018-Jun-13 19:00N 46°19' E 030°39'1 2.6
2018-Jun-13 18:30N 46°20' E 030°39'0 0.3
2018-Jun-13 18:01N 46°21' E 030°38'0 0.0
2018-Jun-13 17:02N 46°21' E 030°38'0 0.0
2018-Jun-13 17:00N 46°21' E 030°38'0 0.0
2018-Jun-13 16:02N 46°21' E 030°38'0 0.0
2018-Jun-13 16:00N 46°21' E 030°38'0 0.0
2018-Jun-13 15:02N 46°21' E 030°38'0 0.0
2018-Jun-13 15:00N 46°21' E 030°38'0 0.0
2018-Jun-13 14:04N 46°21' E 030°38'0 0.0
2018-Jun-13 14:00N 46°21' E 030°38'0 0.0
2018-Jun-13 13:03N 46°21' E 030°38'0 0.0
2018-Jun-13 12:56N 46°21' E 030°38'0 0.0
2018-Jun-13 12:03N 46°21' E 030°38'0 0.1
2018-Jun-13 12:00N 46°21' E 030°38'0 0.0
2018-Jun-13 11:04N 46°21' E 030°38'0 0.1
2018-Jun-13 11:00N 46°21' E 030°38'  

Dump ship's entire track history